Terminal Aerodrome Forecast
Issued by NWS

Home | Current Version | Previous Version | Text Only | Print | Product List | Glossary On
Versions: 1 2 3 4 5 6 7 8 9 10 11 12 13
000
FTUS46 KLOX 301123
TAFVNY
TAF
KVNY 301123Z 3012/0112 VRB03KT P6SM SCT250
     FM302000 14008KT P6SM SCT250
     FM010200 VRB03KT P6SM SCT250=

USA.gov is the U.S. government's official web portal to all federal, state and local government web resources and services.